createdAt,value
2019-03-29T00:00:00.883Z,1028.53
2019-03-29T00:01:00.859Z,1028.52
2019-03-29T00:02:00.796Z,1028.50
2019-03-29T00:03:00.740Z,1028.48
2019-03-29T00:04:01.000Z,1028.52
2019-03-29T00:05:00.661Z,1028.51
2019-03-29T00:06:00.643Z,1028.52
2019-03-29T00:07:00.564Z,1028.50
2019-03-29T00:08:00.520Z,1028.51
2019-03-29T00:09:01.318Z,1028.53
2019-03-29T00:10:00.441Z,1028.56
2019-03-29T00:11:00.394Z,1028.52
2019-03-29T00:12:00.374Z,1028.54
2019-03-29T00:13:00.309Z,1028.55
2019-03-29T00:14:00.263Z,1028.51
2019-03-29T00:15:00.374Z,1028.53
2019-03-29T00:16:00.303Z,1028.54
2019-03-29T00:17:00.147Z,1028.50
2019-03-29T00:18:00.080Z,1028.57
2019-03-29T00:19:00.040Z,1028.50
2019-03-29T00:20:00.019Z,1028.54
2019-03-29T00:20:59.957Z,1028.55
2019-03-29T00:21:59.905Z,1028.53
2019-03-29T00:22:59.889Z,1028.51
2019-03-29T00:24:06.560Z,1028.51
2019-03-29T00:24:59.779Z,1028.47
2019-03-29T00:25:59.763Z,1028.46
2019-03-29T00:26:59.681Z,1028.47
2019-03-29T00:27:59.636Z,1028.48
2019-03-29T00:28:59.595Z,1028.48
2019-03-29T00:29:59.549Z,1028.45
2019-03-29T00:30:59.514Z,1028.45
2019-03-29T00:31:59.491Z,1028.43
2019-03-29T00:32:59.443Z,1028.41
2019-03-29T00:33:59.379Z,1028.43
2019-03-29T00:34:59.328Z,1028.42
2019-03-29T00:35:59.881Z,1028.39
2019-03-29T00:36:59.271Z,1028.39
2019-03-29T00:37:59.201Z,1028.37
2019-03-29T00:38:59.151Z,1028.33
2019-03-29T00:39:59.108Z,1028.38
2019-03-29T00:40:59.225Z,1028.30
2019-03-29T00:41:59.048Z,1028.30
2019-03-29T00:42:58.981Z,1028.33
2019-03-29T00:43:58.939Z,1028.31
2019-03-29T00:44:58.893Z,1028.28
2019-03-29T00:45:58.863Z,1028.23
2019-03-29T00:46:58.798Z,1028.17
2019-03-29T00:47:58.778Z,1028.23
2019-03-29T00:48:58.713Z,1028.23
2019-03-29T00:49:58.669Z,1028.18
2019-03-29T00:50:59.100Z,1028.18
2019-03-29T00:51:58.589Z,1028.15
2019-03-29T00:52:58.562Z,1028.10
2019-03-29T00:53:58.493Z,1028.07
2019-03-29T00:54:58.457Z,1028.03
2019-03-29T00:55:58.414Z,1028.06
2019-03-29T00:56:58.366Z,1028.04
2019-03-29T00:57:58.346Z,1028.03
2019-03-29T00:58:58.278Z,1028.02
2019-03-29T00:59:58.230Z,1028.02
2019-03-29T01:00:58.187Z,1028.02
2019-03-29T01:01:58.161Z,1027.99
2019-03-29T01:02:58.142Z,1027.97
2019-03-29T01:03:58.063Z,1027.93
2019-03-29T01:04:58.027Z,1027.95
2019-03-29T01:05:57.980Z,1027.96
2019-03-29T01:06:57.926Z,1027.93
2019-03-29T01:08:07.800Z,1027.93
2019-03-29T01:08:57.895Z,1027.89
2019-03-29T01:09:57.807Z,1027.88
2019-03-29T01:10:57.747Z,1027.89
2019-03-29T01:11:57.711Z,1027.86
2019-03-29T01:12:58.321Z,1027.88
2019-03-29T01:13:57.644Z,1027.86
2019-03-29T01:14:57.586Z,1027.83
2019-03-29T01:15:57.536Z,1027.80
2019-03-29T01:16:57.497Z,1027.84
2019-03-29T01:17:57.453Z,1027.81
2019-03-29T01:18:57.433Z,1027.80
2019-03-29T01:19:57.358Z,1027.83
2019-03-29T01:20:57.320Z,1027.83
2019-03-29T01:21:57.274Z,1027.84
2019-03-29T01:22:57.312Z,1027.86
2019-03-29T01:23:57.192Z,1027.85
2019-03-29T01:24:57.254Z,1027.85
2019-03-29T01:25:57.101Z,1027.87
2019-03-29T01:26:57.083Z,1027.86
2019-03-29T01:27:57.019Z,1027.83
2019-03-29T01:28:56.975Z,1027.87
2019-03-29T01:29:56.959Z,1027.86
2019-03-29T01:30:56.882Z,1027.84
2019-03-29T01:31:56.864Z,1027.85
2019-03-29T01:32:56.798Z,1027.85
2019-03-29T01:33:56.747Z,1027.87
2019-03-29T01:34:56.714Z,1027.81
2019-03-29T01:35:56.666Z,1027.86
2019-03-29T01:36:56.628Z,1027.87
2019-03-29T01:37:56.609Z,1027.84
2019-03-29T01:38:56.535Z,1027.82
2019-03-29T01:39:56.486Z,1027.81
2019-03-29T01:40:56.452Z,1027.84
2019-03-29T01:41:56.418Z,1027.82
2019-03-29T01:42:56.356Z,1027.83
2019-03-29T01:43:56.344Z,1027.77
2019-03-29T01:44:56.277Z,1027.77
2019-03-29T01:45:56.230Z,1027.77
2019-03-29T01:46:56.189Z,1027.74
2019-03-29T01:47:56.215Z,1027.73
2019-03-29T01:48:56.102Z,1027.68
2019-03-29T01:49:56.084Z,1027.75
2019-03-29T01:50:56.010Z,1027.68
2019-03-29T01:51:55.966Z,1027.72
2019-03-29T01:52:55.924Z,1027.68
2019-03-29T01:53:55.882Z,1027.65
2019-03-29T01:54:57.010Z,1027.68
2019-03-29T01:55:55.799Z,1027.66
2019-03-29T01:56:55.753Z,1027.68
2019-03-29T01:57:55.707Z,1027.64
2019-03-29T01:58:55.694Z,1027.59
2019-03-29T01:59:55.625Z,1027.55
2019-03-29T02:00:55.608Z,1027.53
2019-03-29T02:01:55.537Z,1027.56
2019-03-29T02:02:55.498Z,1027.51
2019-03-29T02:03:55.466Z,1027.49
2019-03-29T02:04:55.403Z,1027.48
2019-03-29T02:05:55.354Z,1027.51
2019-03-29T02:06:55.319Z,1027.47
2019-03-29T02:07:55.277Z,1027.51
2019-03-29T02:08:55.255Z,1027.52
2019-03-29T02:09:55.216Z,1027.51
2019-03-29T02:10:55.138Z,1027.53
2019-03-29T02:11:55.095Z,1027.50
2019-03-29T02:12:55.085Z,1027.49
2019-03-29T02:13:55.012Z,1027.54
2019-03-29T02:14:54.963Z,1027.52
2019-03-29T02:15:54.948Z,1027.52
2019-03-29T02:16:55.886Z,1027.52
2019-03-29T02:17:54.836Z,1027.50
2019-03-29T02:18:54.818Z,1027.48
2019-03-29T02:19:54.754Z,1027.47
2019-03-29T02:20:54.730Z,1027.49
2019-03-29T02:21:54.673Z,1027.50
2019-03-29T02:22:54.613Z,1027.51
2019-03-29T02:23:54.597Z,1027.51
2019-03-29T02:24:54.528Z,1027.48
2019-03-29T02:25:54.483Z,1027.51
2019-03-29T02:26:54.449Z,1027.42
2019-03-29T02:27:54.398Z,1027.46
2019-03-29T02:28:54.377Z,1027.49
2019-03-29T02:29:54.307Z,1027.46
2019-03-29T02:30:54.291Z,1027.49
2019-03-29T02:31:54.235Z,1027.47
2019-03-29T02:32:54.207Z,1027.52
2019-03-29T02:33:54.162Z,1027.49
2019-03-29T02:34:54.086Z,1027.45
2019-03-29T02:35:54.047Z,1027.50
2019-03-29T02:36:54.000Z,1027.40
2019-03-29T02:37:53.963Z,1027.44
2019-03-29T02:38:56.038Z,1027.44
2019-03-29T02:39:54.828Z,1027.47
2019-03-29T02:40:53.861Z,1027.45
2019-03-29T02:41:53.793Z,1027.46
2019-03-29T02:42:53.733Z,1027.44
2019-03-29T02:43:53.689Z,1027.45
2019-03-29T02:44:53.650Z,1027.47
2019-03-29T02:45:53.614Z,1027.46
2019-03-29T02:46:54.213Z,1027.43
2019-03-29T02:47:53.510Z,1027.41
2019-03-29T02:48:53.467Z,1027.39
2019-03-29T02:49:53.421Z,1027.39
2019-03-29T02:50:53.409Z,1027.38
2019-03-29T02:51:53.339Z,1027.39
2019-03-29T02:52:53.295Z,1027.38
2019-03-29T02:53:53.250Z,1027.32
2019-03-29T02:54:53.198Z,1027.33
2019-03-29T02:55:53.188Z,1027.34
2019-03-29T02:56:53.115Z,1027.29
2019-03-29T02:57:53.067Z,1027.35
2019-03-29T02:58:53.026Z,1027.31
2019-03-29T02:59:52.987Z,1027.39
2019-03-29T03:00:52.938Z,1027.38
2019-03-29T03:01:52.913Z,1027.38
2019-03-29T03:02:52.881Z,1027.34
2019-03-29T03:03:52.805Z,1027.37
2019-03-29T03:04:52.760Z,1027.37
2019-03-29T03:05:52.716Z,1027.32
2019-03-29T03:06:52.667Z,1027.38
2019-03-29T03:07:52.620Z,1027.37
2019-03-29T03:08:52.602Z,1027.36
2019-03-29T03:09:52.536Z,1027.32
2019-03-29T03:10:52.492Z,1027.33
2019-03-29T03:11:52.453Z,1027.31
2019-03-29T03:12:52.465Z,1027.30
2019-03-29T03:13:52.390Z,1027.32
2019-03-29T03:14:52.312Z,1027.27
2019-03-29T03:15:52.274Z,1027.26
2019-03-29T03:16:52.227Z,1027.24
2019-03-29T03:17:52.193Z,1027.20
2019-03-29T03:18:52.143Z,1027.22
2019-03-29T03:19:52.114Z,1027.22
2019-03-29T03:20:52.046Z,1027.23
2019-03-29T03:21:52.003Z,1027.19
2019-03-29T03:22:51.962Z,1027.18
2019-03-29T03:23:51.927Z,1027.23
2019-03-29T03:24:51.897Z,1027.28
2019-03-29T03:25:51.866Z,1027.26
2019-03-29T03:26:51.778Z,1027.26
2019-03-29T03:27:51.732Z,1027.31
2019-03-29T03:28:51.687Z,1027.28
2019-03-29T03:29:51.676Z,1027.29
2019-03-29T03:30:51.616Z,1027.30
2019-03-29T03:31:51.598Z,1027.30
2019-03-29T03:32:51.509Z,1027.30
2019-03-29T03:33:51.470Z,1027.30
2019-03-29T03:34:51.480Z,1027.28
2019-03-29T03:35:51.411Z,1027.30
2019-03-29T03:36:51.343Z,1027.32
2019-03-29T03:37:51.297Z,1027.26
2019-03-29T03:38:51.247Z,1027.27
2019-03-29T03:39:51.198Z,1027.27
2019-03-29T03:40:51.198Z,1027.32
2019-03-29T03:41:51.133Z,1027.29
2019-03-29T03:42:51.069Z,1027.25
2019-03-29T03:43:51.037Z,1027.28
2019-03-29T03:44:50.996Z,1027.28
2019-03-29T03:45:50.939Z,1027.24
2019-03-29T03:46:50.917Z,1027.27
2019-03-29T03:47:50.838Z,1027.31
2019-03-29T03:48:50.812Z,1027.33
2019-03-29T03:49:50.774Z,1027.31
2019-03-29T03:50:50.714Z,1027.31
2019-03-29T03:51:50.693Z,1027.28
2019-03-29T03:52:50.621Z,1027.27
2019-03-29T03:53:50.574Z,1027.31
2019-03-29T03:54:50.542Z,1027.28
2019-03-29T03:55:50.490Z,1027.33
2019-03-29T03:56:50.442Z,1027.31
2019-03-29T03:57:50.417Z,1027.29
2019-03-29T03:58:50.358Z,1027.29
2019-03-29T03:59:50.314Z,1027.29
2019-03-29T04:00:50.309Z,1027.32
2019-03-29T04:01:50.232Z,1027.29
2019-03-29T04:02:50.203Z,1027.26
2019-03-29T04:03:50.130Z,1027.28
2019-03-29T04:04:50.094Z,1027.28
2019-03-29T04:05:50.045Z,1027.33
2019-03-29T04:06:50.007Z,1027.32
2019-03-29T04:07:49.971Z,1027.32
2019-03-29T04:08:49.900Z,1027.29
2019-03-29T04:09:50.767Z,1027.26
2019-03-29T04:10:49.821Z,1027.25
2019-03-29T04:11:49.774Z,1027.21
2019-03-29T04:12:49.732Z,1027.27
2019-03-29T04:13:49.710Z,1027.21
2019-03-29T04:14:49.637Z,1027.27
2019-03-29T04:15:49.590Z,1027.25
2019-03-29T04:16:49.544Z,1027.28
2019-03-29T04:17:49.502Z,1027.27
2019-03-29T04:18:49.464Z,1027.30
2019-03-29T04:19:49.438Z,1027.27
2019-03-29T04:20:49.375Z,1027.30
2019-03-29T04:21:49.329Z,1027.33
2019-03-29T04:22:49.283Z,1027.33
2019-03-29T04:23:49.261Z,1027.31
2019-03-29T04:24:49.193Z,1027.26
2019-03-29T04:25:49.145Z,1027.30
2019-03-29T04:26:49.094Z,1027.29
2019-03-29T04:27:49.049Z,1027.30
2019-03-29T04:29:03.271Z,1027.25
2019-03-29T04:29:48.957Z,1027.29
2019-03-29T04:30:48.922Z,1027.27
2019-03-29T04:31:48.874Z,1027.22
2019-03-29T04:32:48.835Z,1027.21
2019-03-29T04:33:48.788Z,1027.20
2019-03-29T04:34:48.758Z,1027.22
2019-03-29T04:35:48.695Z,1027.23
2019-03-29T04:36:48.650Z,1027.23
2019-03-29T04:37:48.612Z,1027.19
2019-03-29T04:38:48.586Z,1027.19
2019-03-29T04:40:05.814Z,1027.26
2019-03-29T04:40:48.466Z,1027.23
2019-03-29T04:41:48.420Z,1027.26
2019-03-29T04:42:48.385Z,1027.25
2019-03-29T04:43:48.338Z,1027.22
2019-03-29T04:44:48.320Z,1027.23
2019-03-29T04:45:48.252Z,1027.26
2019-03-29T04:46:48.198Z,1027.24
2019-03-29T04:47:48.165Z,1027.25
2019-03-29T04:48:48.111Z,1027.28
2019-03-29T04:49:48.094Z,1027.26
2019-03-29T04:50:48.030Z,1027.25
2019-03-29T04:51:47.979Z,1027.23
2019-03-29T04:52:47.925Z,1027.25
2019-03-29T04:53:47.891Z,1027.27
2019-03-29T04:54:47.847Z,1027.26
2019-03-29T04:55:47.826Z,1027.25
2019-03-29T04:56:47.751Z,1027.27
2019-03-29T04:57:47.709Z,1027.27
2019-03-29T04:58:47.659Z,1027.27
2019-03-29T04:59:47.612Z,1027.28
2019-03-29T05:00:47.599Z,1027.26
2019-03-29T05:01:47.525Z,1027.25
2019-03-29T05:02:47.483Z,1027.26
2019-03-29T05:03:47.439Z,1027.26
2019-03-29T05:04:47.395Z,1027.25
2019-03-29T05:05:47.347Z,1027.21
2019-03-29T05:06:47.321Z,1027.21
2019-03-29T05:07:47.255Z,1027.19
2019-03-29T05:08:47.215Z,1027.16
2019-03-29T05:09:47.168Z,1027.17
2019-03-29T05:10:47.118Z,1027.13
2019-03-29T05:11:47.093Z,1027.15
2019-03-29T05:12:47.053Z,1027.19
2019-03-29T05:13:46.992Z,1027.13
2019-03-29T05:14:46.945Z,1027.16
2019-03-29T05:15:46.906Z,1027.15
2019-03-29T05:16:46.857Z,1027.13
2019-03-29T05:17:46.831Z,1027.16
2019-03-29T05:18:46.755Z,1027.13
2019-03-29T05:19:46.711Z,1027.12
2019-03-29T05:20:46.663Z,1027.12
2019-03-29T05:21:46.648Z,1027.11
2019-03-29T05:22:46.583Z,1027.16
2019-03-29T05:23:46.535Z,1027.12
2019-03-29T05:24:46.486Z,1027.15
2019-03-29T05:25:46.442Z,1027.16
2019-03-29T05:26:46.403Z,1027.18
2019-03-29T05:27:46.389Z,1027.14
2019-03-29T05:28:46.313Z,1027.14
2019-03-29T05:29:46.270Z,1027.15
2019-03-29T05:30:46.212Z,1027.16
2019-03-29T05:31:46.199Z,1027.11
2019-03-29T05:32:46.124Z,1027.12
2019-03-29T05:33:46.086Z,1027.11
2019-03-29T05:34:46.045Z,1027.11
2019-03-29T05:35:45.999Z,1027.10
2019-03-29T05:36:45.952Z,1027.10
2019-03-29T05:37:45.932Z,1027.12
2019-03-29T05:38:45.854Z,1027.08
2019-03-29T05:39:45.832Z,1027.08
2019-03-29T05:40:45.774Z,1027.09
2019-03-29T05:41:45.726Z,1027.07
2019-03-29T05:42:45.680Z,1027.08
2019-03-29T05:43:45.635Z,1027.06
2019-03-29T05:44:45.612Z,1027.11
2019-03-29T05:45:45.539Z,1027.11
2019-03-29T05:46:45.503Z,1027.12
2019-03-29T05:47:45.458Z,1027.08
2019-03-29T05:48:45.411Z,1027.11
2019-03-29T05:49:45.386Z,1027.11
2019-03-29T05:50:45.313Z,1027.07
2019-03-29T05:51:45.268Z,1027.11
2019-03-29T05:52:45.229Z,1027.07
2019-03-29T05:53:45.186Z,1027.06
2019-03-29T05:54:45.168Z,1027.07
2019-03-29T05:55:48.198Z,1027.05
2019-03-29T05:56:45.055Z,1027.09
2019-03-29T05:57:45.024Z,1027.06
2019-03-29T05:58:44.961Z,1027.05
2019-03-29T05:59:44.916Z,1027.10
2019-03-29T06:00:44.876Z,1027.08
2019-03-29T06:01:44.834Z,1027.11
2019-03-29T06:02:44.798Z,1027.13
2019-03-29T06:03:44.753Z,1027.15
2019-03-29T06:04:44.692Z,1027.13
2019-03-29T06:05:44.641Z,1027.12
2019-03-29T06:06:44.650Z,1027.15
2019-03-29T06:07:44.556Z,1027.13
2019-03-29T06:08:44.543Z,1027.13
2019-03-29T06:09:44.470Z,1027.14
2019-03-29T06:10:49.316Z,1027.14
2019-03-29T06:11:44.374Z,1027.20
2019-03-29T06:12:44.335Z,1027.24
2019-03-29T06:13:44.314Z,1027.22
2019-03-29T06:14:44.260Z,1027.24
2019-03-29T06:15:44.196Z,1027.23
2019-03-29T06:16:44.150Z,1027.19
2019-03-29T06:17:49.027Z,1027.19
2019-03-29T06:18:44.073Z,1027.27
2019-03-29T06:19:44.043Z,1027.24
2019-03-29T06:20:43.978Z,1027.29
2019-03-29T06:21:43.936Z,1027.28
2019-03-29T06:22:43.886Z,1027.29
2019-03-29T06:23:43.850Z,1027.31
2019-03-29T06:24:43.830Z,1027.30
2019-03-29T06:25:43.773Z,1027.30
2019-03-29T06:26:43.722Z,1027.31
2019-03-29T06:27:43.679Z,1027.27
2019-03-29T06:28:43.634Z,1027.29
2019-03-29T06:29:43.589Z,1027.31
2019-03-29T06:30:43.576Z,1027.34
2019-03-29T06:31:43.539Z,1027.37
2019-03-29T06:32:43.471Z,1027.38
2019-03-29T06:33:44.714Z,1027.40
2019-03-29T06:34:43.377Z,1027.41
2019-03-29T06:35:43.367Z,1027.43
2019-03-29T06:36:43.297Z,1027.39
2019-03-29T06:37:43.312Z,1027.42
2019-03-29T06:38:43.224Z,1027.40
2019-03-29T06:39:43.177Z,1027.41
2019-03-29T06:40:43.140Z,1027.43
2019-03-29T06:41:43.125Z,1027.43
2019-03-29T06:42:43.054Z,1027.40
2019-03-29T06:43:43.015Z,1027.43
2019-03-29T06:44:44.458Z,1027.49
2019-03-29T06:45:48.215Z,1027.43
2019-03-29T06:46:42.925Z,1027.45
2019-03-29T06:47:42.864Z,1027.49
2019-03-29T06:48:42.816Z,1027.43
2019-03-29T06:49:42.781Z,1027.41
2019-03-29T06:50:42.856Z,1027.43
2019-03-29T06:51:42.717Z,1027.46
2019-03-29T06:52:42.687Z,1027.44
2019-03-29T06:53:42.623Z,1027.45
2019-03-29T06:54:42.584Z,1027.44
2019-03-29T06:55:42.546Z,1027.49
2019-03-29T06:56:42.506Z,1027.51
2019-03-29T06:57:42.490Z,1027.47
2019-03-29T06:58:42.437Z,1027.49
2019-03-29T06:59:42.399Z,1027.54
2019-03-29T07:00:42.354Z,1027.58
2019-03-29T07:01:42.337Z,1027.60
2019-03-29T07:02:42.311Z,1027.58
2019-03-29T07:03:42.250Z,1027.59
2019-03-29T07:04:42.210Z,1027.60
2019-03-29T07:05:42.171Z,1027.55
2019-03-29T07:06:42.124Z,1027.58
2019-03-29T07:07:44.570Z,1027.62
2019-03-29T07:08:42.058Z,1027.65
2019-03-29T07:09:42.021Z,1027.65
2019-03-29T07:10:41.985Z,1027.62
2019-03-29T07:11:41.958Z,1027.65
2019-03-29T07:12:41.939Z,1027.69
2019-03-29T07:13:41.876Z,1027.71
2019-03-29T07:14:41.834Z,1027.69
2019-03-29T07:15:41.794Z,1027.72
2019-03-29T07:16:41.766Z,1027.83
2019-03-29T07:17:41.755Z,1027.83
2019-03-29T07:18:41.688Z,1027.84
2019-03-29T07:19:41.680Z,1027.89
2019-03-29T07:20:41.617Z,1027.92
2019-03-29T07:21:41.578Z,1027.90
2019-03-29T07:22:41.548Z,1027.86
2019-03-29T07:23:41.514Z,1027.85
2019-03-29T07:24:41.478Z,1027.86
2019-03-29T07:25:41.464Z,1027.93
2019-03-29T07:26:41.401Z,1027.89
2019-03-29T07:27:46.708Z,1027.96
2019-03-29T07:28:41.333Z,1027.99
2019-03-29T07:29:41.325Z,1027.97
2019-03-29T07:30:41.265Z,1028.00
2019-03-29T07:31:41.229Z,1027.98
2019-03-29T07:32:41.193Z,1027.97
2019-03-29T07:33:41.155Z,1027.95
2019-03-29T07:34:41.123Z,1027.94
2019-03-29T07:35:41.110Z,1027.91
2019-03-29T07:36:41.053Z,1027.91
2019-03-29T07:37:41.018Z,1027.90
2019-03-29T07:38:40.972Z,1027.92
2019-03-29T07:39:40.940Z,1027.92
2019-03-29T07:40:40.942Z,1027.99
2019-03-29T07:41:40.880Z,1028.14
2019-03-29T07:42:40.844Z,1028.22
2019-03-29T07:43:40.809Z,1028.31
2019-03-29T07:44:40.771Z,1028.39
2019-03-29T07:45:40.736Z,1028.44
2019-03-29T07:46:40.717Z,1028.53
2019-03-29T07:47:40.667Z,1028.63
2019-03-29T07:48:40.631Z,1028.69
2019-03-29T07:49:40.597Z,1028.71
2019-03-29T07:50:40.648Z,1028.81
2019-03-29T07:51:40.545Z,1028.97
2019-03-29T07:52:40.485Z,1029.07
2019-03-29T07:53:40.452Z,1029.14
2019-03-29T07:54:40.418Z,1029.23
2019-03-29T07:55:40.386Z,1029.46
2019-03-29T07:56:40.440Z,1029.65
2019-03-29T07:57:40.312Z,1029.81
2019-03-29T07:58:40.268Z,1030.02
2019-03-29T07:59:40.263Z,1030.02
2019-03-29T08:00:40.202Z,1029.85
2019-03-29T08:01:40.172Z,1029.72
2019-03-29T08:02:40.176Z,1029.49
2019-03-29T08:03:40.103Z,1029.25
2019-03-29T08:04:40.115Z,1029.12
2019-03-29T08:05:40.039Z,1028.99
2019-03-29T08:06:40.012Z,1028.90
2019-03-29T08:07:40.009Z,1028.73
2019-03-29T08:08:39.932Z,1028.76
2019-03-29T08:09:39.901Z,1028.69
2019-03-29T08:10:39.877Z,1028.66
2019-03-29T08:11:46.323Z,1028.56
2019-03-29T08:12:40.666Z,1028.59
2019-03-29T08:13:39.795Z,1028.57
2019-03-29T08:14:39.719Z,1028.57
2019-03-29T08:15:39.691Z,1028.64
2019-03-29T08:16:39.667Z,1028.59
2019-03-29T08:17:39.638Z,1028.60
2019-03-29T08:18:39.588Z,1028.54
2019-03-29T08:19:39.598Z,1028.50
2019-03-29T08:20:43.931Z,1028.48
2019-03-29T08:21:39.503Z,1028.48
2019-03-29T08:22:39.456Z,1028.47
2019-03-29T08:23:39.411Z,1028.38
2019-03-29T08:24:39.374Z,1028.33
2019-03-29T08:25:39.366Z,1028.34
2019-03-29T08:26:39.323Z,1028.38
2019-03-29T08:27:39.293Z,1028.39
2019-03-29T08:28:39.250Z,1028.32
2019-03-29T08:29:39.234Z,1028.34
2019-03-29T08:30:39.267Z,1028.33
2019-03-29T08:31:39.260Z,1028.32
2019-03-29T08:32:39.104Z,1028.34
2019-03-29T08:33:39.074Z,1028.32
2019-03-29T08:34:39.054Z,1028.30
2019-03-29T08:35:39.036Z,1028.30
2019-03-29T08:36:39.003Z,1028.31
2019-03-29T08:37:38.931Z,1028.32
2019-03-29T08:38:39.050Z,1028.31
2019-03-29T08:39:38.866Z,1028.28
2019-03-29T08:40:38.886Z,1028.26
2019-03-29T08:41:38.802Z,1028.30
2019-03-29T08:42:38.757Z,1028.33
2019-03-29T08:43:38.727Z,1028.30
2019-03-29T08:44:38.697Z,1028.30
2019-03-29T08:45:38.678Z,1028.29
2019-03-29T08:46:38.636Z,1028.28
2019-03-29T08:47:38.620Z,1028.28
2019-03-29T08:48:38.659Z,1028.23
2019-03-29T08:49:38.527Z,1028.25
2019-03-29T08:50:38.511Z,1028.30
2019-03-29T08:51:41.335Z,1028.25
2019-03-29T08:52:38.515Z,1028.28
2019-03-29T08:53:38.392Z,1028.26
2019-03-29T08:54:38.351Z,1028.26
2019-03-29T08:55:45.655Z,1028.29
2019-03-29T08:56:38.290Z,1028.26
2019-03-29T08:57:38.256Z,1028.23
2019-03-29T08:58:38.226Z,1028.21
2019-03-29T08:59:38.193Z,1028.13
2019-03-29T09:00:38.227Z,1028.10
2019-03-29T09:01:38.129Z,1028.11
2019-03-29T09:02:38.085Z,1028.05
2019-03-29T09:03:38.049Z,1028.08
2019-03-29T09:04:38.035Z,1028.08
2019-03-29T09:05:39.284Z,1028.09
2019-03-29T09:06:52.126Z,1028.05
2019-03-29T09:07:44.542Z,1028.09
2019-03-29T09:08:37.903Z,1028.01
2019-03-29T09:09:37.867Z,1027.99
2019-03-29T09:10:37.842Z,1028.01
2019-03-29T09:11:39.102Z,1027.99
2019-03-29T09:12:37.773Z,1027.98
2019-03-29T09:13:37.748Z,1028.03
2019-03-29T09:14:37.706Z,1028.03
2019-03-29T09:15:37.707Z,1027.94
2019-03-29T09:16:37.626Z,1027.94
2019-03-29T09:17:37.596Z,1027.91
2019-03-29T09:18:37.677Z,1027.92
2019-03-29T09:19:37.542Z,1027.87
2019-03-29T09:20:37.513Z,1027.89
2019-03-29T09:21:37.487Z,1027.85
2019-03-29T09:22:37.423Z,1027.90
2019-03-29T09:23:37.417Z,1027.88
2019-03-29T09:24:37.367Z,1027.88
2019-03-29T09:25:40.292Z,1027.90
2019-03-29T09:26:37.400Z,1027.81
2019-03-29T09:27:37.266Z,1027.80
2019-03-29T09:28:37.264Z,1027.72
2019-03-29T09:29:37.202Z,1027.81
2019-03-29T09:30:37.167Z,1027.87
2019-03-29T09:31:37.135Z,1027.77
2019-03-29T09:32:37.106Z,1027.75
2019-03-29T09:33:37.082Z,1027.76
2019-03-29T09:34:37.062Z,1027.77
2019-03-29T09:35:37.000Z,1027.77
2019-03-29T09:36:36.988Z,1027.68
2019-03-29T09:37:36.944Z,1027.72
2019-03-29T09:38:36.911Z,1027.67
2019-03-29T09:39:36.910Z,1027.54
2019-03-29T09:40:36.851Z,1027.63
2019-03-29T09:41:36.808Z,1027.61
2019-03-29T09:42:36.783Z,1027.66
2019-03-29T09:43:36.768Z,1027.60
2019-03-29T09:44:36.768Z,1027.65
2019-03-29T09:45:36.687Z,1027.59
2019-03-29T09:46:36.657Z,1027.58
2019-03-29T09:47:40.408Z,1027.56
2019-03-29T09:48:36.588Z,1027.58
2019-03-29T09:49:36.550Z,1027.55
2019-03-29T09:50:36.555Z,1027.49
2019-03-29T09:51:36.549Z,1027.46
2019-03-29T09:52:36.483Z,1027.47
2019-03-29T09:53:36.470Z,1027.44
2019-03-29T09:54:36.392Z,1027.47
2019-03-29T09:55:36.411Z,1027.43
2019-03-29T09:56:39.117Z,1027.36
2019-03-29T09:57:37.694Z,1027.36
2019-03-29T09:58:36.273Z,1027.36
2019-03-29T09:59:36.244Z,1027.34
2019-03-29T10:00:36.222Z,1027.39
2019-03-29T10:01:36.274Z,1027.41
2019-03-29T10:02:36.153Z,1027.35
2019-03-29T10:03:36.214Z,1027.32
2019-03-29T10:04:36.087Z,1027.30
2019-03-29T10:05:36.058Z,1027.26
2019-03-29T10:06:36.177Z,1027.23
2019-03-29T10:07:35.974Z,1027.23
2019-03-29T10:08:35.943Z,1027.20
2019-03-29T10:09:35.910Z,1027.18
2019-03-29T10:10:35.893Z,1027.14
2019-03-29T10:11:35.918Z,1027.16
2019-03-29T10:12:43.181Z,1027.14
2019-03-29T10:13:35.796Z,1027.14
2019-03-29T10:14:35.771Z,1027.10
2019-03-29T10:15:35.742Z,1027.07
2019-03-29T10:16:35.726Z,1027.13
2019-03-29T10:17:35.700Z,1027.07
2019-03-29T10:18:35.637Z,1027.10
2019-03-29T10:19:35.619Z,1027.03
2019-03-29T10:20:35.582Z,1027.02
2019-03-29T10:21:35.537Z,1027.07
2019-03-29T10:22:35.536Z,1026.99
2019-03-29T10:23:35.474Z,1026.96
2019-03-29T10:24:35.480Z,1026.99
2019-03-29T10:25:35.418Z,1026.94
2019-03-29T10:26:35.385Z,1026.96
2019-03-29T10:27:35.373Z,1026.89
2019-03-29T10:28:35.320Z,1026.89
2019-03-29T10:29:35.308Z,1026.88
2019-03-29T10:30:35.252Z,1026.88
2019-03-29T10:31:35.222Z,1026.84
2019-03-29T10:32:35.242Z,1026.82
2019-03-29T10:33:35.183Z,1026.84
2019-03-29T10:34:37.486Z,1026.80
2019-03-29T10:35:49.856Z,1026.80
2019-03-29T10:36:35.084Z,1026.78
2019-03-29T10:37:35.075Z,1026.80
2019-03-29T10:38:35.016Z,1026.81
2019-03-29T10:39:35.721Z,1026.77
2019-03-29T10:40:34.949Z,1026.71
2019-03-29T10:41:37.961Z,1026.71
2019-03-29T10:42:34.911Z,1026.68
2019-03-29T10:43:34.847Z,1026.71
2019-03-29T10:44:34.845Z,1026.67
2019-03-29T10:45:39.906Z,1026.62
2019-03-29T10:46:34.761Z,1026.59
2019-03-29T10:47:43.855Z,1026.57
2019-03-29T10:48:34.699Z,1026.57
2019-03-29T10:49:34.658Z,1026.57
2019-03-29T10:50:34.657Z,1026.54
2019-03-29T10:51:34.596Z,1026.52
2019-03-29T10:52:34.586Z,1026.46
2019-03-29T10:53:34.535Z,1026.43
2019-03-29T10:54:34.539Z,1026.51
2019-03-29T10:55:34.479Z,1026.49
2019-03-29T10:56:34.794Z,1026.51
2019-03-29T10:57:34.421Z,1026.49
2019-03-29T10:58:34.402Z,1026.53
2019-03-29T10:59:34.359Z,1026.52
2019-03-29T11:00:34.339Z,1026.52
2019-03-29T11:01:34.297Z,1026.47
2019-03-29T11:02:34.282Z,1026.49
2019-03-29T11:03:34.246Z,1026.44
2019-03-29T11:04:34.219Z,1026.42
2019-03-29T11:05:34.169Z,1026.45
2019-03-29T11:06:34.143Z,1026.40
2019-03-29T11:07:34.109Z,1026.38
2019-03-29T11:08:34.093Z,1026.35
2019-03-29T11:09:36.904Z,1026.32
2019-03-29T11:10:34.026Z,1026.29
2019-03-29T11:11:33.975Z,1026.26
2019-03-29T11:12:33.946Z,1026.25
2019-03-29T11:13:33.939Z,1026.25
2019-03-29T11:14:33.915Z,1026.24
2019-03-29T11:15:33.869Z,1026.22
2019-03-29T11:16:33.845Z,1026.17
2019-03-29T11:17:33.811Z,1026.20
2019-03-29T11:18:33.779Z,1026.17
2019-03-29T11:19:33.782Z,1026.14
2019-03-29T11:20:33.723Z,1026.11
2019-03-29T11:21:33.700Z,1026.09
2019-03-29T11:22:33.646Z,1026.11
2019-03-29T11:23:33.626Z,1026.08
2019-03-29T11:24:33.601Z,1026.05
2019-03-29T11:25:33.582Z,1026.07
2019-03-29T11:26:33.524Z,1026.08
2019-03-29T11:27:33.496Z,1026.08
2019-03-29T11:28:33.482Z,1026.05
2019-03-29T11:29:33.430Z,1026.03
2019-03-29T11:30:42.065Z,1026.01
2019-03-29T11:31:33.405Z,1026.00
2019-03-29T11:32:33.355Z,1026.00
2019-03-29T11:33:33.319Z,1026.00
2019-03-29T11:34:33.291Z,1025.98
2019-03-29T11:35:33.246Z,1025.97
2019-03-29T11:36:33.266Z,1025.98
2019-03-29T11:37:33.185Z,1025.98
2019-03-29T11:38:33.163Z,1025.95
2019-03-29T11:39:33.127Z,1025.90
2019-03-29T11:40:33.093Z,1025.89
2019-03-29T11:41:33.088Z,1025.88
2019-03-29T11:42:33.037Z,1025.90
2019-03-29T11:43:33.010Z,1025.92
2019-03-29T11:44:32.985Z,1025.84
2019-03-29T11:45:32.940Z,1025.78
2019-03-29T11:46:32.957Z,1025.80
2019-03-29T11:47:32.911Z,1025.78
2019-03-29T11:48:32.879Z,1025.80
2019-03-29T11:49:32.824Z,1025.73
2019-03-29T11:50:32.790Z,1025.70
2019-03-29T11:51:32.766Z,1025.73
2019-03-29T11:52:33.943Z,1025.68
2019-03-29T11:53:32.703Z,1025.67
2019-03-29T11:54:32.665Z,1025.67
2019-03-29T11:55:32.629Z,1025.64
2019-03-29T11:56:32.607Z,1025.61
2019-03-29T11:57:32.621Z,1025.61
2019-03-29T11:58:32.544Z,1025.54
2019-03-29T11:59:32.513Z,1025.50
2019-03-29T12:00:32.508Z,1025.48
2019-03-29T12:01:32.454Z,1025.40
2019-03-29T12:02:32.412Z,1025.34
2019-03-29T12:03:32.411Z,1025.29
2019-03-29T12:04:32.365Z,1025.30